Friday, January 19, 2018, 10:34 PM EST
Back to Local

KLOM, Philadelphia, Wings Field Airport

Location: Blue Bell, PA, United States Lat: 40.138
Local Time: 10:34 PM EST ( 3:34 GMT) Lon: -75.265
Time Zone: US/Eastern Elev: 301 ft

Show me the last for .
Show Coded

Time T Td Feel RH Dir Speed Gust Alt SLP Vis Weather Sky Remarks
2018-01-19 22:15 32 21 - 63 - Calm - 30.01 - 10 CLR None
2018-01-19 21:55 32 19 29 59 250° 3 - 30.01 - 10 CLR None
2018-01-19 21:35 32 21 - 63 - Calm - 30.01 - 10 CLR None
2018-01-19 21:15 34 21 - 59 - Calm - 30.01 - 10 CLR None
2018-01-19 20:55 34 21 31 59 240° 3 - 30.01 - 10 CLR None
2018-01-19 20:35 34 21 31 59 230° 3 - 30.02 - 10 CLR None
2018-01-19 20:15 32 21 29 63 230° 3 - 30.02 - 10 CLR None
2018-01-19 19:55 30 23 - 74 - Calm - 30.02 - 10 CLR None
2018-01-19 19:35 30 23 - 74 - Calm - 30.02 - 10 CLR None
2018-01-19 19:15 30 21 - 68 - Calm - 30.02 - 10 CLR None
2018-01-19 18:55 30 23 - 74 - Calm - 30.02 - 10 CLR None
2018-01-19 18:35 30 23 - 74 - Calm - 30.02 - 10 CLR None
2018-01-19 18:15 32 21 - 63 - Calm - 30.02 - 10 CLR None
2018-01-19 17:55 32 21 - 63 - Calm - 30.02 - 10 CLR None
2018-01-19 17:35 34 21 - 59 - Calm - 30.02 - 10 CLR None
2018-01-19 17:15 37 21 - 51 - Calm - 30.01 - 10 CLR None
2018-01-19 16:55 37 21 - 51 - Calm - 30.01 - 10 CLR None
2018-01-19 16:35 39 21 37 48 260° 3 - 30.02 - 10 CLR None
2018-01-19 16:15 39 19 36 44 260° 5 - 30.02 - 10 CLR None
2018-01-19 15:55 39 19 34 44 260° 8 - 30.02 - 10 CLR None
2018-01-19 15:35 39 21 30 48 260° 5 16 30.01 - 10 CLR None
2018-01-19 15:15 39 19 30 44 250° 8 16 30.01 - 10 CLR None
2018-01-19 14:55 41 21 35 44 250° 9 - 30.01 - 10 CLR None
2018-01-19 14:35 39 19 33 44 260° 9 - 30.03 - 10 CLR None
2018-01-19 14:15 37 19 32 47 260° 7 - 30.03 - 10 CLR None
2018-01-19 13:55 37 19 32 47 280° 7 - 30.03 - 10 CLR None
2018-01-19 13:35 37 19 31 47 260° 8 - 30.03 - 10 CLR None
2018-01-19 13:15 37 18 33 44 290° 6 - 30.03 - 10 CLR None
2018-01-19 12:55 36 19 31 51 240° 6 - 30.04 - 10 CLR None
2018-01-19 12:35 36 18 30 47 270° 7 - 30.06 - 10 CLR None
2018-01-19 12:15 36 18 30 47 260° 7 - 30.07 - 10 CLR None
2018-01-19 11:55 36 18 30 47 280° 7 - 30.08 - 10 CLR None
2018-01-19 11:35 34 18 26 50 240° 9 - 30.09 - 10 CLR None
2018-01-19 11:15 34 18 30 50 250° 5 - 30.10 - 10 CLR None
2018-01-19 10:55 32 18 27 54 240° 5 - 30.11 - 10 CLR None
2018-01-19 10:35 32 18 27 54 240° 5 - 30.12 - 10 CLR None
2018-01-19 10:15 32 18 - 54 - Calm - 30.12 - 10 CLR None
2018-01-19 09:55 30 18 27 58 260° 3 - 30.12 - 10 CLR None
2018-01-19 09:35 30 18 27 58 250° 3 - 30.11 - 10 CLR None
2018-01-19 09:15 27 18 23 68 250° 3 - 30.11 - 10 CLR None
2018-01-19 08:55 27 18 - 68 - Calm - 30.11 - 10 CLR None
2018-01-19 08:35 23 18 - 79 - Calm - 30.10 - 10 CLR None
2018-01-19 08:15 23 18 - 79 - Calm - 30.10 - 10 CLR None
2018-01-19 07:55 21 18 - 85 - Calm - 30.10 - 10 CLR None
2018-01-19 07:35 16 14 - 92 - Calm - 30.10 - 10 CLR None
2018-01-19 07:15 14 14 - 100 - Calm - 30.10 - 10 CLR None
2018-01-19 06:55 16 14 - 92 - Calm - 30.10 - 10 CLR None
2018-01-19 06:35 16 14 - 92 - Calm - 30.09 - 10 CLR None
2018-01-19 06:15 14 12 - 92 - Calm - 30.10 - 10 CLR None
2018-01-19 05:55 14 14 - 100 - Calm - 30.10 - 10 CLR None
2018-01-19 05:35 14 12 - 92 - Calm - 30.09 - 10 CLR None
2018-01-19 05:15 18 14 - 85 - Calm - 30.09 - 10 CLR None
2018-01-19 04:55 18 14 - 85 - Calm - 30.09 - 10 CLR None
2018-01-19 04:35 18 14 - 85 - Calm - 30.08 - 10 CLR None
2018-01-19 04:15 18 14 - 85 - Calm - 30.08 - 10 CLR None
2018-01-19 03:55 18 14 - 85 - Calm - 30.08 - 10 CLR None
2018-01-19 03:35 18 14 - 85 - Calm - 30.08 - 10 CLR None
2018-01-19 03:15 18 14 - 85 - Calm - 30.07 - 10 CLR None
2018-01-19 02:55 18 14 - 85 - Calm - 30.07 - 10 CLR None
2018-01-19 02:35 19 14 - 79 - Calm - 30.07 - 10 CLR None
2018-01-19 02:15 19 14 - 79 - Calm - 30.07 - 10 CLR None
2018-01-19 01:55 18 14 - 85 - Calm - 30.07 - 10 CLR None
2018-01-19 01:35 18 14 - 85 - Calm - 30.07 - 10 CLR None
2018-01-19 01:15 18 14 - 85 - Calm - 30.07 - 10 CLR None
2018-01-19 00:55 19 14 - 79 - Calm - 30.07 - 10 CLR None
2018-01-19 00:35 19 14 - 79 - Calm - 30.08 - 10 CLR None
2018-01-19 00:15 18 14 - 85 - Calm - 30.09 - 10 CLR None
2018-01-18 23:55 19 14 - 79 - Calm - 30.10 - 10 CLR None
2018-01-18 23:35 18 14 - 85 - Calm - 30.10 - 10 CLR None
2018-01-18 23:15 18 14 - 85 - Calm - 30.11 - 10 CLR None
2018-01-18 22:55 19 14 - 79 - Calm - 30.11 - 10 CLR None
2018-01-18 22:35 19 12 - 73 - Calm - 30.11 - 10 CLR None

Support USWX by starting your Amazon purchase here.